Time;durP1;ratioP1;P1;durP2;ratioP2;P2;SDS_P1;SDS_P2;PMS_P1;PMS_P2;Temp;Humidity;BMP_temperature;BMP_pressure;BME280_temperature;BME280_humidity;BME280_pressure;Samples;Min_cycle;Max_cycle;Signal;HPM_P1;HPM_P2
2022/02/11 00:07:01;;;;;;;;;14.00;11.75;;;;;6.86;72.11;102463.31;5091545;27;45173;-62
2022/02/11 00:09:27;;;;;;;;;15.75;13.50;;;;;6.84;71.73;102459.88;5094052;27;45346;-63
2022/02/11 00:11:53;;;;;;;;;13.75;13.00;;;;;6.83;71.83;102473.00;5091702;27;45452;-64
2022/02/11 00:14:19;;;;;;;;;11.25;10.25;;;;;6.80;72.01;102467.81;5101433;27;45512;-65
2022/02/11 00:16:44;;;;;;;;;13.25;10.00;;;;;6.79;71.83;102473.91;5096225;27;45771;-63
2022/02/11 00:19:10;;;;;;;;;14.50;11.75;;;;;6.76;71.76;102468.75;5093805;27;45985;-62
2022/02/11 00:21:35;;;;;;;;;14.50;14.50;;;;;6.74;71.46;102471.41;5092000;27;45298;-66
2022/02/11 00:24:01;;;;;;;;;16.25;13.00;;;;;6.75;71.54;102478.34;5094194;27;45288;-66
2022/02/11 00:26:32;;;;;;;;;15.50;14.00;;;;;6.74;71.67;102474.00;5092401;27;45465;-63
2022/02/11 00:33:57;;;;;;;;;17.25;15.50;;;;;6.75;71.67;102474.88;5095696;27;45319;-63
2022/02/11 00:36:28;;;;;;;;;11.00;6.75;;;;;6.72;72.05;102470.56;5079702;28;45647;-63
2022/02/11 00:47:18;;;;;;;;;20.50;17.00;;;;;6.71;71.59;102479.28;5080932;27;45548;-65
2022/02/11 01:03:47;;;;;;;;;20.50;19.00;;;;;6.57;72.25;102492.59;5093958;27;45427;-66
2022/02/11 01:06:13;;;;;;;;;16.75;13.50;;;;;6.55;72.36;102494.34;5085220;27;45246;-66
2022/02/11 01:08:40;;;;;;;;;15.25;15.00;;;;;6.54;71.53;102497.00;5080614;28;45350;-66
2022/02/11 01:11:10;;;;;;;;;18.75;17.25;;;;;6.50;72.02;102490.94;5080073;28;45661;-66
2022/02/11 01:13:35;;;;;;;;;18.50;15.00;;;;;6.48;71.56;102499.69;5080126;28;45342;-66
2022/02/11 01:16:07;;;;;;;;;19.25;13.50;;;;;6.46;72.59;102506.72;5080166;28;45340;-66
2022/02/11 01:18:33;;;;;;;;;18.00;15.00;;;;;6.44;72.01;102501.50;5080080;28;45414;-66
2022/02/11 01:21:04;;;;;;;;;17.50;15.00;;;;;6.42;72.33;102501.53;5079988;28;46261;-66
2022/02/11 01:23:53;;;;;;;;;19.25;18.25;;;;;6.42;71.68;102504.16;5080926;28;45285;-66
2022/02/11 01:29:28;;;;;;;;;18.25;15.50;;;;;6.37;72.25;102507.72;5067173;27;45530;-68
2022/02/11 01:31:56;;;;;;;;;22.00;17.50;;;;;6.32;71.95;102512.13;5083094;27;45301;-66
2022/02/11 01:56:12;;;;;;;;;18.00;15.75;;;;;6.15;72.05;102530.66;5094176;27;45330;-66
2022/02/11 02:08:50;;;;;;;;;19.25;16.00;;;;;6.14;72.33;102535.03;5102073;27;45405;-66
2022/02/11 02:15:18;;;;;;;;;20.75;17.00;;;;;6.13;71.34;102550.75;5082448;27;45898;-66
2022/02/11 02:25:18;;;;;;;;;17.25;15.25;;;;;6.11;71.49;102566.47;5082818;27;45589;-66
2022/02/11 03:34:58;;;;;;;;;23.25;17.00;;;;;5.66;72.06;102604.38;5102218;27;45366;-66
2022/02/11 04:25:24;;;;;;;;;22.75;18.75;;;;;5.36;72.29;102683.03;5040235;28;45394;-66
2022/02/11 04:59:55;;;;;;;;;17.50;16.00;;;;;5.26;72.64;102722.28;5099752;27;45390;-66
2022/02/11 05:02:25;;;;;;;;;18.75;16.75;;;;;5.25;72.75;102717.94;5100955;27;45489;-66
2022/02/11 05:04:53;;;;;;;;;19.75;17.50;;;;;5.23;72.67;102724.06;5082671;27;45373;-66
2022/02/11 05:07:19;;;;;;;;;19.75;16.75;;;;;5.21;72.88;102720.56;5093237;27;46490;-65
2022/02/11 05:09:44;;;;;;;;;22.25;17.00;;;;;5.20;72.77;102721.44;5079896;28;45377;-65
2022/02/11 05:12:10;;;;;;;;;19.25;17.75;;;;;5.19;73.32;102727.53;5080517;27;45425;-65
2022/02/11 05:14:35;;;;;;;;;18.25;17.00;;;;;5.19;72.83;102740.59;5080584;28;45417;-66
2022/02/11 05:17:00;;;;;;;;;21.50;16.00;;;;;5.19;73.60;102746.69;5079971;27;45511;-66
2022/02/11 05:19:26;;;;;;;;;24.50;18.00;;;;;5.18;73.05;102736.25;5080469;28;45354;-66
2022/02/11 05:21:51;;;;;;;;;17.25;15.00;;;;;5.18;72.74;102741.50;5080579;28;45149;-66
2022/02/11 05:24:17;;;;;;;;;20.75;17.00;;;;;5.16;73.40;102738.03;5104915;27;45449;-70
2022/02/11 05:26:42;;;;;;;;;18.00;13.50;;;;;5.17;73.08;102745.84;5081108;27;45587;-65
2022/02/11 05:29:08;;;;;;;;;16.50;14.00;;;;;5.15;73.53;102747.59;5079715;28;45361;-65
2022/02/11 05:31:33;;;;;;;;;24.00;15.50;;;;;5.14;72.82;102753.72;5080370;28;45440;-65
2022/02/11 05:33:59;;;;;;;;;17.00;16.50;;;;;5.14;73.08;102764.16;5080453;28;45457;-65
2022/02/11 05:36:24;;;;;;;;;24.25;14.50;;;;;5.11;73.53;102758.06;5080217;28;45775;-65
2022/02/11 05:38:50;;;;;;;;;19.25;16.00;;;;;5.12;72.92;102749.34;5081286;27;45610;-65
2022/02/11 05:41:16;;;;;;;;;21.50;19.00;;;;;5.10;72.80;102753.72;5099642;27;45267;-65
2022/02/11 05:43:42;;;;;;;;;22.50;15.50;;;;;5.09;72.92;102763.28;5100378;27;45423;-64
2022/02/11 05:46:10;;;;;;;;;21.50;19.25;;;;;5.08;72.64;102764.19;5080504;27;46011;-65
2022/02/11 05:48:39;;;;;;;;;16.50;14.25;;;;;5.08;72.38;102776.38;5079785;27;45246;-65
2022/02/11 05:51:06;;;;;;;;;22.00;17.50;;;;;5.07;72.60;102777.25;5080101;27;45200;-65
2022/02/11 05:53:32;;;;;;;;;17.75;15.25;;;;;5.06;72.93;102778.13;5079441;27;45466;-65
2022/02/11 05:55:57;;;;;;;;;24.00;17.25;;;;;5.09;72.83;102784.19;5079947;28;45405;-65
2022/02/11 05:58:23;;;;;;;;;17.50;14.75;;;;;5.09;72.16;102792.03;5079527;28;45458;-65
2022/02/11 06:00:48;;;;;;;;;20.00;15.50;;;;;5.09;73.03;102797.25;5079517;28;45537;-65
2022/02/11 06:03:14;;;;;;;;;27.25;20.25;;;;;5.09;72.38;102799.88;5079695;27;45668;-65
2022/02/11 06:05:39;;;;;;;;;25.25;18.00;;;;;5.10;73.42;102804.22;5080785;27;46065;-64
2022/02/11 06:08:04;;;;;;;;;19.00;17.00;;;;;5.10;72.97;102799.00;5098078;27;45509;-64
2022/02/11 06:10:30;;;;;;;;;27.00;23.75;;;;;5.07;72.75;102803.38;5111651;27;45743;-64
2022/02/11 06:12:55;;;;;;;;;20.00;18.00;;;;;5.06;72.89;102802.50;5079791;27;45592;-65
2022/02/11 06:15:23;;;;;;;;;28.00;23.00;;;;;5.04;72.58;102806.84;5081977;27;46737;-65
2022/02/11 06:17:48;;;;;;;;;25.00;21.75;;;;;5.01;72.97;102804.25;5095370;27;45411;-65
2022/02/11 06:20:14;;;;;;;;;21.00;19.50;;;;;5.01;73.29;102796.41;5103556;27;45252;-64
2022/02/11 06:22:43;;;;;;;;;25.00;18.25;;;;;4.99;72.88;102795.56;5103671;27;45372;-65
2022/02/11 06:25:09;;;;;;;;;29.50;21.50;;;;;4.98;72.40;102807.75;5103317;27;45630;-65
2022/02/11 06:27:35;;;;;;;;;10.00;9.25;;;;;4.97;72.41;102810.34;5102988;27;45339;-65
2022/02/11 06:30:00;;;;;;;;;37.00;20.50;;;;;4.97;73.18;102816.44;5103564;27;45371;-65
2022/02/11 06:32:26;;;;;;;;;21.50;19.75;;;;;4.98;72.36;102819.94;5109542;27;45775;-65
2022/02/11 06:34:55;;;;;;;;;25.00;21.75;;;;;4.99;73.31;102832.13;5107990;27;46384;-65
2022/02/11 06:37:21;;;;;;;;;24.00;18.50;;;;;4.99;72.98;102826.91;5096229;27;45372;-64
2022/02/11 06:39:46;;;;;;;;;23.00;21.50;;;;;4.97;72.29;102845.16;5098816;27;45544;-65
2022/02/11 06:42:12;;;;;;;;;29.75;24.50;;;;;4.95;72.50;102844.31;5091245;27;45521;-64
2022/02/11 06:44:37;;;;;;;;;31.50;24.50;;;;;4.93;73.17;102853.88;5096226;27;45397;-64
2022/02/11 06:47:03;;;;;;;;;24.50;20.00;;;;;4.91;72.67;102844.31;5098576;27;45446;-64
2022/02/11 06:49:28;;;;;;;;;36.50;24.50;;;;;4.88;73.00;102842.56;5085974;27;45359;-65
2022/02/11 06:51:54;;;;;;;;;31.00;22.25;;;;;4.86;72.93;102846.94;5082824;27;45430;-65
2022/02/11 06:54:20;;;;;;;;;19.00;18.50;;;;;4.84;73.45;102850.44;5081758;27;46232;-66
2022/02/11 06:56:45;;;;;;;;;30.75;25.25;;;;;4.82;73.76;102853.06;5093937;27;45726;-66
2022/02/11 06:59:11;;;;;;;;;38.25;24.25;;;;;4.84;73.16;102855.66;5094151;27;45327;-65
2022/02/11 07:01:37;;;;;;;;;27.00;23.50;;;;;4.86;73.39;102856.50;5085742;27;46797;-66
2022/02/11 07:04:03;;;;;;;;;37.00;27.25;;;;;4.86;73.25;102861.75;5106897;27;45312;-66
2022/02/11 07:06:28;;;;;;;;;31.75;26.00;;;;;4.87;72.48;102869.56;5110271;27;45395;-67
2022/02/11 07:08:55;;;;;;;;;33.25;26.00;;;;;4.87;73.61;102874.78;5096053;27;45298;-67
2022/02/11 07:11:21;;;;;;;;;37.25;33.00;;;;;4.87;73.46;102868.69;5091989;27;45449;-65
2022/02/11 07:13:47;;;;;;;;;27.25;25.00;;;;;4.88;72.88;102880.88;5088698;27;45515;-66
2022/02/11 07:16:15;;;;;;;;;31.75;26.75;;;;;4.86;73.63;102893.06;5063683;28;45449;-67
2022/02/11 07:18:41;;;;;;;;;27.25;20.25;;;;;4.88;72.78;102906.97;5080959;27;45406;-67
2022/02/11 07:21:07;;;;;;;;;28.75;22.00;;;;;4.88;73.45;102913.06;5092288;27;45469;-66
2022/02/11 07:23:32;;;;;;;;;54.50;36.00;;;;;4.92;73.61;102925.28;5101489;27;45405;-66
2022/02/11 07:25:58;;;;;;;;;37.00;31.00;;;;;4.95;72.44;102924.41;5102085;27;45378;-66
2022/02/11 07:28:24;;;;;;;;;35.50;30.75;;;;;4.94;72.51;102917.44;5101572;27;45374;-67
2022/02/11 07:30:51;;;;;;;;;44.00;31.50;;;;;4.97;73.06;102930.47;5102357;27;45408;-67
2022/02/11 07:33:17;;;;;;;;;29.00;24.75;;;;;4.98;73.09;102937.47;5102392;27;45702;-67
2022/02/11 07:35:44;;;;;;;;;33.75;25.25;;;;;5.00;73.76;102939.19;5102740;27;45356;-67
2022/02/11 07:38:10;;;;;;;;;34.25;29.50;;;;;5.02;73.55;102953.13;5088282;27;45415;-67
2022/02/11 07:40:38;;;;;;;;;52.25;33.75;;;;;5.01;72.61;102948.78;5079145;27;45434;-67
2022/02/11 07:43:04;;;;;;;;;40.00;30.75;;;;;5.07;72.53;102950.53;5101848;27;46070;-67
2022/02/11 07:45:30;;;;;;;;;35.25;24.25;;;;;5.11;72.48;102959.22;5088042;27;45247;-67
2022/02/11 07:47:56;;;;;;;;;39.75;33.75;;;;;5.12;73.58;102955.72;5089366;27;45251;-67
2022/02/11 07:50:22;;;;;;;;;43.25;37.75;;;;;5.17;73.44;102961.81;5102267;27;45423;-67
2022/02/11 07:52:48;;;;;;;;;34.50;27.50;;;;;5.21;72.82;102966.16;5101511;27;45354;-67
2022/02/11 07:55:14;;;;;;;;;31.75;25.25;;;;;5.27;72.66;102976.59;5102135;27;45345;-67
2022/02/11 07:57:40;;;;;;;;;32.75;23.25;;;;;5.27;72.40;102974.84;5101873;27;45296;-66
2022/02/11 08:00:07;;;;;;;;;31.50;26.00;;;;;5.31;72.43;102973.13;5101918;27;45334;-66
2022/02/11 08:02:34;;;;;;;;;65.00;52.00;;;;;5.35;72.68;102981.81;5092673;27;45645;-66
2022/02/11 08:05:01;;;;;;;;;43.50;38.50;;;;;5.38;72.38;102979.22;5081508;27;45185;-66
2022/02/11 08:07:27;;;;;;;;;45.50;39.50;;;;;5.40;72.31;102986.19;5081682;27;45397;-66
2022/02/11 08:09:53;;;;;;;;;28.00;24.00;;;;;5.42;72.85;102994.88;5082438;27;45355;-66
2022/02/11 08:12:18;;;;;;;;;31.75;23.50;;;;;5.45;72.35;102994.88;5087275;27;45430;-67
2022/02/11 08:14:44;;;;;;;;;34.25;26.00;;;;;5.50;72.25;102994.88;5094350;27;45418;-67
2022/02/11 08:17:09;;;;;;;;;33.75;26.75;;;;;5.55;72.99;102994.00;5089294;27;45519;-67
2022/02/11 08:19:35;;;;;;;;;38.00;25.75;;;;;5.59;71.95;102997.44;5101710;27;45320;-67
2022/02/11 08:22:00;;;;;;;;;42.50;38.00;;;;;5.62;72.24;103007.91;5101964;27;45305;-66
2022/02/11 08:24:26;;;;;;;;;43.75;34.50;;;;;5.64;71.62;103008.78;5101715;27;45405;-66
2022/02/11 08:26:51;;;;;;;;;42.00;35.75;;;;;5.70;71.07;103011.38;5101712;27;45416;-67
2022/02/11 08:29:21;;;;;;;;;30.00;29.25;;;;;5.74;71.32;103018.34;5101646;27;45466;-67
2022/02/11 08:31:47;;;;;;;;;30.25;29.50;;;;;5.76;71.20;103021.81;5101484;27;45367;-67
2022/02/11 08:34:12;;;;;;;;;40.25;32.75;;;;;5.78;70.61;103027.94;5100843;27;45338;-67
2022/02/11 08:36:38;;;;;;;;;32.50;28.00;;;;;5.79;71.31;103034.03;5101859;27;45260;-67
2022/02/11 08:39:03;;;;;;;;;34.25;28.75;;;;;5.82;71.46;103037.50;5100213;27;45318;-66
2022/02/11 08:41:29;;;;;;;;;35.50;32.25;;;;;5.88;70.79;103036.63;5101617;27;45345;-67
2022/02/11 08:43:54;;;;;;;;;40.00;36.25;;;;;5.93;71.18;103039.25;5100599;27;45437;-67
2022/02/11 08:46:24;;;;;;;;;49.25;42.00;;;;;6.00;71.51;103043.56;5080912;28;45398;-67
2022/02/11 08:48:49;;;;;;;;;59.25;41.75;;;;;6.06;70.45;103048.78;5080964;28;45513;-67
2022/02/11 08:51:15;;;;;;;;;61.75;44.75;;;;;6.10;71.11;103045.31;5080864;28;45953;-67
2022/02/11 08:53:41;;;;;;;;;33.50;27.25;;;;;6.16;71.22;103047.88;5080299;28;45331;-67
2022/02/11 08:56:08;;;;;;;;;35.25;27.75;;;;;6.22;70.73;103058.31;5081338;27;45245;-68
2022/02/11 08:58:35;;;;;;;;;29.50;26.00;;;;;6.23;70.34;103052.22;5081022;27;45439;-67
2022/02/11 09:01:00;;;;;;;;;59.00;37.75;;;;;6.28;70.60;103055.69;5081024;28;46071;-67
2022/02/11 09:03:26;;;;;;;;;37.50;29.75;;;;;6.35;70.43;103067.88;5080919;28;45382;-67
2022/02/11 09:05:52;;;;;;;;;31.75;30.00;;;;;6.37;70.12;103063.50;5080398;27;45470;-68
2022/02/11 09:08:17;;;;;;;;;37.50;32.00;;;;;6.42;70.01;103064.34;5080768;28;45335;-67
2022/02/11 09:10:47;;;;;;;;;53.75;39.50;;;;;6.44;69.63;103067.81;5080502;28;45236;-67
2022/02/11 09:13:13;;;;;;;;;53.25;42.25;;;;;6.48;70.04;103073.94;5080293;27;45367;-67
2022/02/11 09:15:39;;;;;;;;;83.33;63.33;;;;;6.55;70.03;103083.47;5088601;27;45402;-67
2022/02/11 09:18:04;;;;;;;;;43.75;40.25;;;;;6.58;69.46;103082.59;5080709;27;45443;-67
2022/02/11 09:20:30;;;;;;;;;44.75;35.75;;;;;6.61;69.59;103085.19;5080309;27;45609;-66
2022/02/11 09:22:55;;;;;;;;;40.75;26.75;;;;;6.65;69.59;103094.78;5080143;27;45319;-67
2022/02/11 09:25:21;;;;;;;;;26.00;25.50;;;;;6.66;69.24;103097.41;5080504;28;45456;-67
2022/02/11 09:27:46;;;;;;;;;35.50;29.00;;;;;6.68;68.97;103100.00;5080293;28;45261;-67
2022/02/11 09:30:22;;;;;;;;;39.00;30.25;;;;;6.72;69.81;103109.59;5080046;27;45220;-67
2022/02/11 09:32:52;;;;;;;;;34.75;29.75;;;;;6.79;69.44;103107.78;5080032;28;45248;-67
2022/02/11 09:35:20;;;;;;;;;31.50;26.25;;;;;6.81;69.41;103106.06;5080402;28;45323;-67
2022/02/11 09:37:45;;;;;;;;;33.75;24.75;;;;;6.87;69.70;103106.00;5080531;28;45407;-67
2022/02/11 09:40:14;;;;;;;;;25.00;21.25;;;;;6.89;69.33;103107.75;5091733;27;46119;-67
2022/02/11 09:42:40;;;;;;;;;23.00;18.50;;;;;6.95;68.94;103115.59;5100028;27;45391;-67
2022/02/11 09:45:11;;;;;;;;;34.25;24.25;;;;;6.99;69.19;103113.81;5089936;27;45370;-67
2022/02/11 09:47:37;;;;;;;;;28.75;23.00;;;;;7.08;68.85;103126.84;5083545;27;45359;-67
2022/02/11 09:50:05;;;;;;;;;36.25;24.00;;;;;7.09;68.70;103123.34;5083845;27;45491;-67
2022/02/11 09:52:42;;;;;;;;;36.75;28.50;;;;;7.15;68.82;103132.91;5082840;27;45748;-68
2022/02/11 09:57:53;;;;;;;;;26.50;25.75;;;;;7.23;68.44;103121.50;5083689;28;45353;-67
2022/02/11 10:00:22;;;;;;;;;30.25;25.50;;;;;7.29;68.24;103125.84;5083292;28;45386;-68
2022/02/11 10:02:49;;;;;;;;;29.50;26.25;;;;;7.31;67.92;103134.56;5082985;28;45399;-67
2022/02/11 10:05:24;;;;;;;;;30.75;28.50;;;;;7.34;68.23;103134.50;5083621;27;45295;-67
2022/02/11 10:07:50;;;;;;;;;42.25;36.00;;;;;7.40;68.04;103121.38;5083663;28;45201;-67
2022/02/11 10:10:38;;;;;;;;;29.00;25.25;;;;;7.44;68.23;103128.34;5083228;27;46264;-67
2022/02/11 10:13:04;;;;;;;;;32.25;28.25;;;;;7.50;67.93;103122.16;5082538;27;45389;-67
2022/02/11 10:15:30;;;;;;;;;39.00;36.00;;;;;7.55;67.94;103128.25;5091679;27;45276;-67
2022/02/11 10:17:59;;;;;;;;;30.75;28.00;;;;;7.55;67.83;103142.22;5083255;27;45465;-67
2022/02/11 10:20:26;;;;;;;;;24.75;20.50;;;;;7.60;67.89;103147.44;5083033;28;46289;-67
2022/02/11 10:23:01;;;;;;;;;25.25;20.00;;;;;7.65;67.45;103156.13;5082665;27;45378;-67
2022/02/11 10:25:27;;;;;;;;;26.75;20.25;;;;;7.72;67.19;103143.84;5083120;28;45386;-67
2022/02/11 10:27:52;;;;;;;;;31.00;23.50;;;;;7.80;67.10;103156.00;5082972;28;45402;-67
2022/02/11 10:30:22;;;;;;;;;29.50;23.75;;;;;7.84;67.17;103157.72;5083194;27;45365;-67
2022/02/11 10:32:52;;;;;;;;;26.00;23.75;;;;;7.89;67.09;103147.16;5082619;27;45287;-66
2022/02/11 10:35:25;;;;;;;;;34.50;29.00;;;;;7.97;67.06;103155.84;5083275;27;45318;-66
2022/02/11 10:38:13;;;;;;;;;16.75;16.00;;;;;8.03;66.90;103160.16;5083315;27;45301;-66
2022/02/11 10:40:41;;;;;;;;;26.75;23.50;;;;;8.09;66.62;103163.59;5098357;27;46165;-66
2022/02/11 10:43:22;;;;;;;;;32.50;25.50;;;;;8.11;66.75;103163.59;5084513;27;45311;-66
2022/02/11 10:45:47;;;;;;;;;18.75;13.00;;;;;8.14;66.58;103171.44;5086357;27;45413;-66
2022/02/11 10:48:23;;;;;;;;;20.50;18.00;;;;;8.19;66.68;103164.38;5082875;28;45536;-66
2022/02/11 10:50:58;;;;;;;;;19.00;15.00;;;;;8.25;65.95;103174.81;5082684;28;45616;-66
2022/02/11 10:53:23;;;;;;;;;14.75;14.00;;;;;8.27;66.18;103170.41;5082106;27;45411;-66
2022/02/11 10:55:51;;;;;;;;;20.50;16.75;;;;;8.32;65.96;103162.50;5082642;28;45867;-67
2022/02/11 10:58:20;;;;;;;;;13.00;11.75;;;;;8.39;65.97;103167.69;5082573;27;45318;-67
2022/02/11 11:00:47;;;;;;;;;24.25;14.00;;;;;8.48;65.95;103168.47;5082405;28;45446;-67
2022/02/11 11:03:13;;;;;;;;;52.25;34.75;;;;;8.54;65.63;103173.66;5082427;28;45493;-67
2022/02/11 11:05:41;;;;;;;;;24.50;16.00;;;;;8.59;65.37;103179.72;5082622;27;45351;-67
2022/02/11 11:08:13;;;;;;;;;21.00;15.00;;;;;8.60;64.87;103171.81;5082813;28;45427;-67
2022/02/11 11:10:41;;;;;;;;;19.25;15.75;;;;;8.64;64.65;103167.41;5089857;27;46458;-67
2022/02/11 11:13:10;;;;;;;;;19.00;16.00;;;;;8.67;64.68;103169.97;5102600;27;45382;-67
2022/02/11 11:15:36;;;;;;;;;13.50;12.25;;;;;8.62;64.15;103163.94;5095466;27;45337;-67
2022/02/11 11:18:06;;;;;;;;;18.75;12.50;;;;;8.56;64.41;103167.50;5082601;27;45616;-67
2022/02/11 11:20:34;;;;;;;;;19.00;15.25;;;;;8.59;64.38;103175.34;5082355;28;45315;-66
2022/02/11 11:23:18;;;;;;;;;17.50;13.25;;;;;8.67;64.52;103169.97;5082204;27;45536;-67
2022/02/11 11:26:01;;;;;;;;;13.50;12.00;;;;;8.72;63.88;103157.66;5082602;27;45501;-67
2022/02/11 11:28:50;;;;;;;;;19.00;14.25;;;;;8.84;64.25;103156.63;5088921;27;45440;-67
2022/02/11 11:31:29;;;;;;;;;17.50;13.50;;;;;9.06;63.53;103162.47;5102371;27;45261;-67
2022/02/11 11:34:16;;;;;;;;;15.50;12.00;;;;;9.31;62.70;103161.22;5102588;27;45643;-67
2022/02/11 11:36:45;;;;;;;;;16.00;10.00;;;;;9.43;62.42;103165.44;5103062;27;45255;-68
2022/02/11 11:39:11;;;;;;;;;11.50;10.00;;;;;9.52;62.96;103163.50;5101502;27;45407;-67
2022/02/11 11:41:37;;;;;;;;;10.00;7.25;;;;;9.61;61.95;103170.38;5102632;27;46091;-67
2022/02/11 11:44:24;;;;;;;;;8.50;6.00;;;;;9.57;61.42;103163.44;5099964;27;45473;-68
2022/02/11 11:46:52;;;;;;;;;12.00;5.00;;;;;9.54;60.68;103165.25;5081921;28;45524;-67
2022/02/11 11:49:25;;;;;;;;;5.25;5.25;;;;;9.57;61.05;103167.84;5081965;27;45476;-67
2022/02/11 11:51:50;;;;;;;;;12.75;6.00;;;;;9.50;60.73;103170.56;5082013;27;45511;-67
2022/02/11 11:54:21;;;;;;;;;9.00;5.00;;;;;9.40;60.32;103175.97;5080854;27;45359;-67
2022/02/11 11:57:10;;;;;;;;;5.25;3.00;;;;;9.29;60.55;103170.91;5082105;28;45346;-67
2022/02/11 11:59:40;;;;;;;;;6.50;3.00;;;;;9.22;60.54;103159.59;5091034;27;45340;-67
2022/02/11 12:02:08;;;;;;;;;8.25;4.25;;;;;9.23;60.25;103160.47;5101844;27;45402;-67
2022/02/11 12:04:46;;;;;;;;;5.75;2.75;;;;;9.30;60.22;103162.09;5102179;27;45391;-67
2022/02/11 12:07:12;;;;;;;;;12.50;5.50;;;;;9.41;60.38;103151.44;5102245;27;45309;-67
2022/02/11 12:09:41;;;;;;;;;6.75;4.75;;;;;9.46;59.72;103153.09;5101237;27;45265;-67
2022/02/11 12:12:09;;;;;;;;;9.00;4.25;;;;;9.55;59.55;103149.44;5101904;27;45373;-67
2022/02/11 12:14:40;;;;;;;;;4.00;2.25;;;;;9.66;58.93;103142.25;5101664;27;45501;-67
2022/02/11 12:17:10;;;;;;;;;2.75;1.50;;;;;9.78;58.50;103147.28;5081483;27;45243;-67
2022/02/11 12:19:38;;;;;;;;;5.50;5.50;;;;;9.97;58.73;103141.72;5081799;27;45414;-67
2022/02/11 12:22:07;;;;;;;;;5.75;2.00;;;;;10.16;58.28;103143.09;5081550;27;45340;-67
2022/02/11 12:27:31;;;;;;;;;4.00;2.00;;;;;10.36;58.35;103144.53;5081580;28;45434;-67
2022/02/11 12:30:22;;;;;;;;;5.50;3.75;;;;;10.31;56.90;103142.81;5081434;27;45418;-67
2022/02/11 12:33:06;;;;;;;;;6.00;4.25;;;;;10.18;56.45;103143.06;5080909;28;46229;-67
2022/02/11 12:35:36;;;;;;;;;6.50;3.50;;;;;10.12;57.34;103145.81;5080992;28;45233;-67
2022/02/11 12:38:03;;;;;;;;;47.50;40.50;;;;;10.07;56.89;103132.72;5081349;27;45430;-67
2022/02/11 12:40:34;;;;;;;;;6.25;3.75;;;;;10.07;56.82;103128.34;5096472;27;45557;-67
2022/02/11 12:43:06;;;;;;;;;7.75;3.00;;;;;10.08;57.33;103123.94;5100965;27;45428;-67
2022/02/11 12:45:40;;;;;;;;;5.00;4.00;;;;;10.12;56.75;103127.41;5086630;27;45258;-67
2022/02/11 12:48:10;;;;;;;;;4.00;4.00;;;;;10.20;56.54;103120.22;5081266;27;45336;-66
2022/02/11 12:50:38;;;;;;;;;89.67;78.00;;;;;10.31;56.67;103123.53;5081024;28;45245;-66
2022/02/11 12:53:07;;;;;;;;;7.25;5.75;;;;;10.43;56.43;103117.16;5080148;28;46111;-67
2022/02/11 12:55:36;;;;;;;;;9.75;6.00;;;;;10.56;56.88;103115.97;5076109;27;45354;-66
2022/02/11 12:58:04;;;;;;;;;74.33;60.00;;;;;10.71;56.02;103118.28;5080841;28;46502;-67
2022/02/11 13:00:32;;;;;;;;;8.00;6.75;;;;;10.81;55.91;103114.53;5080986;28;45578;-67
2022/02/11 13:03:00;;;;;;;;;4.00;3.00;;;;;10.88;55.50;103112.63;5080817;28;45505;-66
2022/02/11 13:05:27;;;;;;;;;5.00;3.25;;;;;10.87;55.60;103121.44;5080264;27;45453;-67
2022/02/11 13:07:55;;;;;;;;;6.75;5.50;;;;;10.83;56.17;103115.38;5081027;28;45402;-67
2022/02/11 13:10:29;;;;;;;;;51.00;42.75;;;;;10.82;55.31;103110.13;5080700;28;45408;-66
2022/02/11 13:12:57;;;;;;;;;6.25;5.50;;;;;10.74;55.84;103118.19;5080555;28;45806;-66
2022/02/11 13:15:28;;;;;;;;;25.50;20.50;;;;;10.71;55.77;103118.28;5088828;27;45392;-67
2022/02/11 13:18:04;;;;;;;;;12.00;11.00;;;;;10.62;55.38;103114.09;5080671;27;45236;-66
2022/02/11 13:20:32;;;;;;;;;40.00;35.00;;;;;10.54;55.54;103117.78;5064643;28;45570;-67
2022/02/11 13:22:58;;;;;;;;;12.75;12.25;;;;;10.42;55.26;103118.88;5082743;28;48109;-66
2022/02/11 13:25:24;;;;;;;;;7.50;4.00;;;;;10.33;55.22;103126.97;5085353;27;45447;-66
2022/02/11 13:27:56;;;;;;;;;5.25;4.00;;;;;10.20;55.32;103121.06;5086785;27;45318;-67
2022/02/11 13:30:31;;;;;;;;;8.00;7.00;;;;;10.14;55.24;103126.44;5084758;27;45489;-67
2022/02/11 13:33:00;;;;;;;;;4.75;4.00;;;;;10.12;55.66;103117.72;5083874;27;46183;-66
2022/02/11 13:35:26;;;;;;;;;6.00;3.00;;;;;10.13;55.08;103121.22;5098020;27;45397;-63
2022/02/11 13:37:58;;;;;;;;;8.75;6.00;;;;;10.11;55.33;103126.53;5114410;27;45417;-63
2022/02/11 13:40:29;;;;;;;;;13.50;13.00;;;;;10.15;55.39;103119.41;5112785;27;45449;-64
2022/02/11 13:43:08;;;;;;;;;7.75;2.75;;;;;10.21;55.79;103117.53;5106354;27;46201;-63
2022/02/11 13:45:56;;;;;;;;;6.50;2.50;;;;;10.25;55.16;103118.38;5106101;27;45342;-64
2022/02/11 13:48:24;;;;;;;;;4.00;2.00;;;;;10.22;55.34;103105.25;5098635;27;45752;-65
2022/02/11 13:50:58;;;;;;;;;3.00;3.00;;;;;10.22;54.96;103108.78;5109888;27;45643;-66
2022/02/11 13:53:33;;;;;;;;;4.50;3.00;;;;;10.28;55.67;103108.66;5111999;27;45352;-64
2022/02/11 13:56:00;;;;;;;;;18.25;9.00;;;;;10.36;55.11;103110.28;5107038;27;45442;-66
2022/02/11 13:58:26;;;;;;;;;12.75;10.50;;;;;10.46;55.86;103106.53;5106220;27;45429;-66
2022/02/11 14:00:52;;;;;;;;;5.25;3.00;;;;;10.52;55.09;103103.78;5112120;27;45566;-67
2022/02/11 14:03:29;;;;;;;;;6.00;4.50;;;;;10.55;54.25;103108.97;5091512;27;45614;-62
2022/02/11 14:06:02;;;;;;;;;7.00;4.00;;;;;10.62;54.59;103115.84;5106213;27;45480;-64
2022/02/11 14:08:45;;;;;;;;;4.00;4.00;;;;;10.70;54.22;103108.66;5106418;27;45588;-69
2022/02/11 14:11:15;;;;;;;;;6.25;3.00;;;;;10.72;54.13;103103.31;5111587;27;45601;-68
2022/02/11 14:13:41;;;;;;;;;4.00;3.75;;;;;10.70;53.83;103098.09;5111986;27;46520;-67
2022/02/11 14:16:07;;;;;;;;;3.75;3.50;;;;;10.71;54.00;103097.19;5112216;27;45314;-67
2022/02/11 14:18:33;;;;;;;;;5.50;4.25;;;;;10.69;53.64;103092.88;5111168;27;45238;-67
2022/02/11 14:20:58;;;;;;;;;54.25;42.25;;;;;10.67;53.82;103092.03;5110037;27;45355;-64
2022/02/11 14:23:24;;;;;;;;;6.75;3.25;;;;;10.62;53.88;103092.13;5108847;27;45295;-62
2022/02/11 14:25:50;;;;;;;;;12.25;6.25;;;;;10.52;53.39;103086.19;5112724;27;45242;-64
2022/02/11 14:28:17;;;;;;;;;5.00;4.00;;;;;10.45;53.71;103096.91;5111129;27;45418;-66
2022/02/11 14:30:44;;;;;;;;;7.00;5.00;;;;;10.42;53.63;103102.22;5110101;27;45410;-64
2022/02/11 14:33:11;;;;;;;;;4.00;3.25;;;;;10.36;53.27;103111.13;5108928;27;45429;-66
2022/02/11 14:35:37;;;;;;;;;9.00;3.00;;;;;10.30;53.10;103104.22;5113972;27;45334;-69
2022/02/11 14:38:04;;;;;;;;;3.00;3.00;;;;;10.25;53.02;103099.94;5111349;27;45316;-65
2022/02/11 14:40:32;;;;;;;;;3.00;3.00;;;;;10.18;53.19;103096.50;5111797;27;45448;-66
2022/02/11 14:42:57;;;;;;;;;3.25;1.75;;;;;10.13;52.69;103094.88;5109724;27;46412;-63
2022/02/11 14:45:23;;;;;;;;;6.75;4.00;;;;;10.07;53.54;103096.72;5108375;27;45488;-66
2022/02/11 14:47:49;;;;;;;;;13.50;6.00;;;;;10.07;53.47;103098.50;5112175;27;45678;-65
2022/02/11 14:50:14;;;;;;;;;7.25;3.50;;;;;10.04;52.36;103093.31;5113038;27;45489;-63
2022/02/11 14:52:40;;;;;;;;;3.50;3.00;;;;;9.99;52.95;103096.00;5109182;27;46357;-72
2022/02/11 14:55:06;;;;;;;;;8.50;3.00;;;;;9.95;52.23;103094.34;5110077;27;45258;-61
2022/02/11 14:57:33;;;;;;;;;4.00;2.50;;;;;9.94;52.03;103091.72;5108946;27;45390;-61
2022/02/11 14:59:59;;;;;;;;;2.25;2.00;;;;;9.93;52.27;103093.47;5113835;27;45529;-62
2022/02/11 15:02:25;;;;;;;;;3.00;3.00;;;;;9.93;51.88;103096.13;5110255;27;46046;-64
2022/02/11 15:04:50;;;;;;;;;5.00;3.00;;;;;9.92;51.64;103090.88;5109041;27;45246;-63
2022/02/11 15:07:17;;;;;;;;;4.50;3.00;;;;;9.89;51.87;103091.81;5106843;27;45227;-65
2022/02/11 15:09:45;;;;;;;;;3.50;2.50;;;;;9.88;52.13;103103.25;5112738;27;45464;-64
2022/02/11 15:12:10;;;;;;;;;6.00;2.00;;;;;9.87;52.17;103090.97;5110612;27;46544;-63
2022/02/11 15:14:36;;;;;;;;;1.75;1.75;;;;;9.86;51.81;103094.50;5107732;27;45666;-64
2022/02/11 15:17:01;;;;;;;;;3.00;3.00;;;;;9.87;52.59;103090.97;5079932;27;45497;-63